Hovedside
METAR-TAF:

METAR-TAF

Lufthavner :

Mitiga International Airport

Tripoli, Libya

breddegrad: 32-54N, lengdegrad: 13-17E, høyde over havet: 11 m

METAR: fraværende

Tid: 18:02 (16:02 UTC)

Varsel

Denne rapporten ble laget for 5 timer og 2 minutter siden, klokken 11:00 UTC
Varsel gyldig fra 20. klokken 12 UTC til 21. klokken 12 UTC
Vind 2 kt fra skiftende retning
Sikt 10 km eller mer
Få skyer i en høyde av 2500 ft
Blir
fra 21. klokken 10 UTC til 21. klokken 12 UTC
Vind 10 kt fra Vest

TAF: HLLM 201100Z 2012/2112 VRB02KT 9999 FEW025 BECMG 2110/2112 27010KT

Værobservasjoner og værvarsel for over 4000 flyplasser (METAR- og TAF-rapporter).

Tilgjengelige stasjoner er representert av de røde og gule prikkene på kartet.

Hold musepekeren over prikken for å se navnet på stasjonen.

Klikk så for å se værobservasjoner og -varsler.

For å forandre kartet kan du klikke på den grønne knappen med svart kryss for å zoome inn, på den grønne knappen med strek for å zoome ut, eller på de grønne pilene for å se tilstøtende kart.


METAR-TAF: